sensor_id;sensor_type;location;lat;lon;timestamp;pressure;altitude;pressure_sealevel;temperature;humidity
6218;BME280;3142;48.206;11.550;2023-12-20T00:01:38;95728.25;;;8.87;46.07
6218;BME280;3142;48.206;11.550;2023-12-20T00:04:05;95738.63;;;8.81;47.28
6218;BME280;3142;48.206;11.550;2023-12-20T00:06:32;95719.75;;;8.79;47.61
6218;BME280;3142;48.206;11.550;2023-12-20T00:08:58;95722.59;;;8.84;47.89
6218;BME280;3142;48.206;11.550;2023-12-20T00:11:25;95717.63;;;8.89;46.61
6218;BME280;3142;48.206;11.550;2023-12-20T00:13:53;95711.41;;;8.90;46.90
6218;BME280;3142;48.206;11.550;2023-12-20T00:16:19;95718.25;;;8.91;46.80
6218;BME280;3142;48.206;11.550;2023-12-20T00:18:45;95723.47;;;8.91;47.95
6218;BME280;3142;48.206;11.550;2023-12-20T00:21:12;95715.19;;;8.87;47.78
6218;BME280;3142;48.206;11.550;2023-12-20T00:23:38;95712.59;;;8.87;47.46
6218;BME280;3142;48.206;11.550;2023-12-20T00:26:05;95715.66;;;8.91;47.91
6218;BME280;3142;48.206;11.550;2023-12-20T00:28:31;95708.44;;;8.93;48.27
6218;BME280;3142;48.206;11.550;2023-12-20T00:30:59;95713.47;;;8.95;48.79
6218;BME280;3142;48.206;11.550;2023-12-20T00:33:25;95706.44;;;8.95;49.24
6218;BME280;3142;48.206;11.550;2023-12-20T00:35:52;95705.81;;;8.93;48.99
6218;BME280;3142;48.206;11.550;2023-12-20T00:38:18;95701.59;;;8.92;48.12
6218;BME280;3142;48.206;11.550;2023-12-20T00:40:45;95693.13;;;8.90;47.99
6218;BME280;3142;48.206;11.550;2023-12-20T00:43:11;95690.19;;;8.93;48.53
6218;BME280;3142;48.206;11.550;2023-12-20T00:45:38;95677.13;;;8.93;48.28
6218;BME280;3142;48.206;11.550;2023-12-20T00:48:06;95679.13;;;8.91;47.10
6218;BME280;3142;48.206;11.550;2023-12-20T00:50:32;95679.47;;;8.88;46.40
6218;BME280;3142;48.206;11.550;2023-12-20T00:52:59;95688.13;;;8.88;46.93
6218;BME280;3142;48.206;11.550;2023-12-20T00:55:25;95686.69;;;8.86;46.97
6218;BME280;3142;48.206;11.550;2023-12-20T00:57:52;95688.56;;;8.92;46.46
6218;BME280;3142;48.206;11.550;2023-12-20T01:00:18;95681.09;;;8.89;47.49
6218;BME280;3142;48.206;11.550;2023-12-20T01:02:45;95675.25;;;8.87;47.65
6218;BME280;3142;48.206;11.550;2023-12-20T01:05:15;95676.31;;;8.93;46.98
6218;BME280;3142;48.206;11.550;2023-12-20T01:07:42;95664.09;;;8.93;46.78
6218;BME280;3142;48.206;11.550;2023-12-20T01:10:09;95660.47;;;8.94;46.06
6218;BME280;3142;48.206;11.550;2023-12-20T01:12:36;95661.28;;;8.95;47.21
6218;BME280;3142;48.206;11.550;2023-12-20T01:15:03;95648.03;;;8.96;46.06
6218;BME280;3142;48.206;11.550;2023-12-20T01:17:30;95650.97;;;8.86;46.37
6218;BME280;3142;48.206;11.550;2023-12-20T01:19:56;95664.44;;;8.90;46.16
6218;BME280;3142;48.206;11.550;2023-12-20T01:22:24;95664.28;;;8.92;46.74
6218;BME280;3142;48.206;11.550;2023-12-20T01:24:51;95658.06;;;8.93;46.80
6218;BME280;3142;48.206;11.550;2023-12-20T01:27:17;95666.31;;;8.96;46.59
6218;BME280;3142;48.206;11.550;2023-12-20T01:29:44;95661.28;;;8.95;46.77
6218;BME280;3142;48.206;11.550;2023-12-20T01:32:10;95663.09;;;8.94;47.20
6218;BME280;3142;48.206;11.550;2023-12-20T01:34:36;95649.84;;;8.96;47.23
6218;BME280;3142;48.206;11.550;2023-12-20T01:37:03;95639.59;;;8.94;47.49
6218;BME280;3142;48.206;11.550;2023-12-20T01:39:31;95640.22;;;8.96;48.05
6218;BME280;3142;48.206;11.550;2023-12-20T01:41:58;95639.22;;;8.97;47.54
6218;BME280;3142;48.206;11.550;2023-12-20T01:44:24;95626.97;;;8.98;47.72
6218;BME280;3142;48.206;11.550;2023-12-20T01:46:51;95627.59;;;9.00;48.16
6218;BME280;3142;48.206;11.550;2023-12-20T01:49:18;95619.34;;;8.96;48.98
6218;BME280;3142;48.206;11.550;2023-12-20T01:51:45;95624.94;;;8.93;49.20
6218;BME280;3142;48.206;11.550;2023-12-20T01:54:12;95621.34;;;8.94;48.67
6218;BME280;3142;48.206;11.550;2023-12-20T01:56:40;95622.34;;;8.93;48.12
6218;BME280;3142;48.206;11.550;2023-12-20T01:59:07;95609.09;;;8.95;48.61
6218;BME280;3142;48.206;11.550;2023-12-20T02:01:35;95610.09;;;8.94;48.42
6218;BME280;3142;48.206;11.550;2023-12-20T02:04:01;95601.28;;;8.95;48.28
6218;BME280;3142;48.206;11.550;2023-12-20T02:06:29;95605.91;;;8.99;48.55
6218;BME280;3142;48.206;11.550;2023-12-20T02:08:57;95592.84;;;8.99;49.25
6218;BME280;3142;48.206;11.550;2023-12-20T02:11:26;95575.00;;;9.03;48.41
6218;BME280;3142;48.206;11.550;2023-12-20T02:13:55;95584.09;;;9.07;48.42
6218;BME280;3142;48.206;11.550;2023-12-20T02:16:22;95569.97;;;8.95;48.72
6218;BME280;3142;48.206;11.550;2023-12-20T02:18:48;95578.81;;;9.00;48.87
6218;BME280;3142;48.206;11.550;2023-12-20T02:21:15;95578.63;;;9.02;48.26
6218;BME280;3142;48.206;11.550;2023-12-20T02:23:42;95582.84;;;9.03;48.27
6218;BME280;3142;48.206;11.550;2023-12-20T02:26:09;95577.41;;;9.04;49.09
6218;BME280;3142;48.206;11.550;2023-12-20T02:28:36;95573.03;;;9.05;49.31
6218;BME280;3142;48.206;11.550;2023-12-20T02:31:03;95567.63;;;9.06;48.31
6218;BME280;3142;48.206;11.550;2023-12-20T02:33:29;95576.63;;;9.04;49.53
6218;BME280;3142;48.206;11.550;2023-12-20T02:35:55;95567.81;;;9.05;49.44
6218;BME280;3142;48.206;11.550;2023-12-20T02:38:22;95565.56;;;9.02;49.10
6218;BME280;3142;48.206;11.550;2023-12-20T02:40:50;95555.13;;;9.02;49.10
6218;BME280;3142;48.206;11.550;2023-12-20T02:43:16;95547.31;;;9.02;49.24
6218;BME280;3142;48.206;11.550;2023-12-20T02:45:42;95541.47;;;9.00;49.20
6218;BME280;3142;48.206;11.550;2023-12-20T02:48:09;95544.09;;;9.00;49.45
6218;BME280;3142;48.206;11.550;2023-12-20T02:50:35;95540.47;;;9.01;49.64
6218;BME280;3142;48.206;11.550;2023-12-20T02:53:02;95544.09;;;9.00;50.02
6218;BME280;3142;48.206;11.550;2023-12-20T02:55:28;95540.69;;;8.99;50.08
6218;BME280;3142;48.206;11.550;2023-12-20T02:57:56;95547.50;;;9.00;49.92
6218;BME280;3142;48.206;11.550;2023-12-20T03:00:23;95552.91;;;8.99;50.07
6218;BME280;3142;48.206;11.550;2023-12-20T03:02:49;95560.34;;;8.95;50.75
6218;BME280;3142;48.206;11.550;2023-12-20T03:05:15;95549.91;;;8.95;51.49
6218;BME280;3142;48.206;11.550;2023-12-20T03:07:42;95547.69;;;8.99;50.85
6218;BME280;3142;48.206;11.550;2023-12-20T03:10:09;95549.31;;;9.00;51.14
6218;BME280;3142;48.206;11.550;2023-12-20T03:12:35;95555.53;;;8.99;52.51
6218;BME280;3142;48.206;11.550;2023-12-20T03:15:03;95559.94;;;8.98;52.54
6218;BME280;3142;48.206;11.550;2023-12-20T03:17:29;95556.53;;;8.98;52.79
6218;BME280;3142;48.206;11.550;2023-12-20T03:19:55;95559.13;;;8.98;52.80
6218;BME280;3142;48.206;11.550;2023-12-20T03:22:22;95553.13;;;8.97;53.13
6218;BME280;3142;48.206;11.550;2023-12-20T03:24:48;95553.53;;;9.01;53.92
6218;BME280;3142;48.206;11.550;2023-12-20T03:27:15;95559.16;;;9.04;53.17
6218;BME280;3142;48.206;11.550;2023-12-20T03:29:41;95567.63;;;9.06;54.23
6218;BME280;3142;48.206;11.550;2023-12-20T03:32:09;95569.44;;;9.06;53.09
6218;BME280;3142;48.206;11.550;2023-12-20T03:34:35;95575.25;;;9.08;54.67
6218;BME280;3142;48.206;11.550;2023-12-20T03:37:02;95576.25;;;9.07;54.52
6218;BME280;3142;48.206;11.550;2023-12-20T03:39:29;95584.28;;;9.05;55.45
6218;BME280;3142;48.206;11.550;2023-12-20T03:41:55;95589.66;;;9.04;55.81
6218;BME280;3142;48.206;11.550;2023-12-20T03:44:21;95594.06;;;9.03;55.69
6218;BME280;3142;48.206;11.550;2023-12-20T03:46:48;95605.31;;;9.04;56.58
6218;BME280;3142;48.206;11.550;2023-12-20T03:49:16;95603.50;;;9.04;57.14
6218;BME280;3142;48.206;11.550;2023-12-20T03:51:42;95604.50;;;9.03;56.98
6218;BME280;3142;48.206;11.550;2023-12-20T03:54:08;95606.13;;;9.04;56.06
6218;BME280;3142;48.206;11.550;2023-12-20T03:56:35;95606.72;;;9.00;56.78
6218;BME280;3142;48.206;11.550;2023-12-20T03:59:01;95618.13;;;8.92;58.71
6218;BME280;3142;48.206;11.550;2023-12-20T04:01:28;95609.63;;;8.83;60.65
6218;BME280;3142;48.206;11.550;2023-12-20T04:03:54;95612.16;;;8.70;62.17
6218;BME280;3142;48.206;11.550;2023-12-20T04:06:22;95610.31;;;8.64;63.48
6218;BME280;3142;48.206;11.550;2023-12-20T04:08:48;95607.06;;;8.62;63.97
6218;BME280;3142;48.206;11.550;2023-12-20T04:11:15;95622.09;;;8.60;64.76
6218;BME280;3142;48.206;11.550;2023-12-20T04:13:41;95612.63;;;8.52;65.21
6218;BME280;3142;48.206;11.550;2023-12-20T04:16:08;95610.34;;;8.43;66.53
6218;BME280;3142;48.206;11.550;2023-12-20T04:18:34;95611.09;;;8.37;66.99
6218;BME280;3142;48.206;11.550;2023-12-20T04:21:01;95611.25;;;8.35;66.87
6218;BME280;3142;48.206;11.550;2023-12-20T04:23:29;95609.66;;;8.34;68.68
6218;BME280;3142;48.206;11.550;2023-12-20T04:25:56;95604.78;;;8.31;68.65
6218;BME280;3142;48.206;11.550;2023-12-20T04:28:22;95600.16;;;8.26;68.55
6218;BME280;3142;48.206;11.550;2023-12-20T04:30:49;95595.75;;;8.27;69.39
6218;BME280;3142;48.206;11.550;2023-12-20T04:33:15;95602.38;;;8.29;68.97
6218;BME280;3142;48.206;11.550;2023-12-20T04:35:42;95603.97;;;8.30;69.43
6218;BME280;3142;48.206;11.550;2023-12-20T04:38:11;95613.78;;;8.28;69.93
6218;BME280;3142;48.206;11.550;2023-12-20T04:40:38;95605.34;;;8.26;70.05
6218;BME280;3142;48.206;11.550;2023-12-20T04:43:06;95614.72;;;8.21;70.59
6218;BME280;3142;48.206;11.550;2023-12-20T04:45:32;95614.28;;;8.17;70.94
6218;BME280;3142;48.206;11.550;2023-12-20T04:47:59;95620.69;;;8.15;70.85
6218;BME280;3142;48.206;11.550;2023-12-20T04:50:25;95631.09;;;8.15;71.12
6218;BME280;3142;48.206;11.550;2023-12-20T04:52:52;95628.41;;;8.08;72.23
6218;BME280;3142;48.206;11.550;2023-12-20T04:55:18;95640.63;;;8.08;72.94
6218;BME280;3142;48.206;11.550;2023-12-20T04:57:46;95644.06;;;8.08;72.36
6218;BME280;3142;48.206;11.550;2023-12-20T05:00:13;95644.88;;;8.09;73.15
6218;BME280;3142;48.206;11.550;2023-12-20T05:02:40;95640.59;;;8.01;73.28
6218;BME280;3142;48.206;11.550;2023-12-20T05:05:07;95653.63;;;8.01;74.13
6218;BME280;3142;48.206;11.550;2023-12-20T05:07:34;95653.38;;;7.96;74.96
6218;BME280;3142;48.206;11.550;2023-12-20T05:10:00;95643.13;;;7.94;75.05
6218;BME280;3142;48.206;11.550;2023-12-20T05:12:29;95658.50;;;7.89;74.93
6218;BME280;3142;48.206;11.550;2023-12-20T05:14:58;95652.44;;;7.82;75.54
6218;BME280;3142;48.206;11.550;2023-12-20T05:17:24;95656.63;;;7.83;75.97
6218;BME280;3142;48.206;11.550;2023-12-20T05:19:51;95638.75;;;7.80;75.58
6218;BME280;3142;48.206;11.550;2023-12-20T05:22:18;95652.09;;;7.70;76.27
6218;BME280;3142;48.206;11.550;2023-12-20T05:24:44;95656.03;;;7.66;77.53
6218;BME280;3142;48.206;11.550;2023-12-20T05:27:11;95660.78;;;7.63;77.00
6218;BME280;3142;48.206;11.550;2023-12-20T05:29:37;95662.59;;;7.62;78.02
6218;BME280;3142;48.206;11.550;2023-12-20T05:32:06;95676.16;;;7.58;77.88
6218;BME280;3142;48.206;11.550;2023-12-20T05:34:32;95668.16;;;7.59;78.94
6218;BME280;3142;48.206;11.550;2023-12-20T05:36:59;95673.56;;;7.58;78.95
6218;BME280;3142;48.206;11.550;2023-12-20T05:39:26;95667.09;;;7.54;79.08
6218;BME280;3142;48.206;11.550;2023-12-20T05:41:53;95677.69;;;7.52;78.29
6218;BME280;3142;48.206;11.550;2023-12-20T05:44:19;95682.63;;;7.47;79.09
6218;BME280;3142;48.206;11.550;2023-12-20T05:46:46;95681.81;;;7.47;78.97
6218;BME280;3142;48.206;11.550;2023-12-20T05:49:14;95691.25;;;7.48;79.53
6218;BME280;3142;48.206;11.550;2023-12-20T05:51:40;95691.44;;;7.46;78.81
6218;BME280;3142;48.206;11.550;2023-12-20T05:54:07;95694.22;;;7.45;79.64
6218;BME280;3142;48.206;11.550;2023-12-20T05:56:34;95700.13;;;7.38;79.77
6218;BME280;3142;48.206;11.550;2023-12-20T05:59:00;95716.09;;;7.35;79.22
6218;BME280;3142;48.206;11.550;2023-12-20T06:01:27;95706.88;;;7.33;79.51
6218;BME280;3142;48.206;11.550;2023-12-20T06:03:53;95715.03;;;7.30;79.24
6218;BME280;3142;48.206;11.550;2023-12-20T06:06:21;95726.44;;;7.29;79.05
6218;BME280;3142;48.206;11.550;2023-12-20T06:08:47;95716.22;;;7.27;79.73
6218;BME280;3142;48.206;11.550;2023-12-20T06:11:14;95720.75;;;7.25;79.38
6218;BME280;3142;48.206;11.550;2023-12-20T06:13:40;95719.16;;;7.24;79.08
6218;BME280;3142;48.206;11.550;2023-12-20T06:16:07;95728.75;;;7.24;79.19
6218;BME280;3142;48.206;11.550;2023-12-20T06:18:33;95722.72;;;7.23;79.65
6218;BME280;3142;48.206;11.550;2023-12-20T06:21:02;95727.50;;;7.20;79.15
6218;BME280;3142;48.206;11.550;2023-12-20T06:23:30;95739.50;;;7.21;79.35
6218;BME280;3142;48.206;11.550;2023-12-20T06:25:56;95733.69;;;7.19;79.52
6218;BME280;3142;48.206;11.550;2023-12-20T06:28:22;95749.47;;;7.17;79.28
6218;BME280;3142;48.206;11.550;2023-12-20T06:30:49;95755.66;;;7.16;79.23
6218;BME280;3142;48.206;11.550;2023-12-20T06:33:17;95754.22;;;7.13;79.15
6218;BME280;3142;48.206;11.550;2023-12-20T06:35:44;95754.56;;;7.10;79.61
6218;BME280;3142;48.206;11.550;2023-12-20T06:38:10;95757.53;;;7.07;78.83
6218;BME280;3142;48.206;11.550;2023-12-20T06:40:38;95763.72;;;7.06;78.90
6218;BME280;3142;48.206;11.550;2023-12-20T06:43:04;95762.28;;;7.04;79.80
6218;BME280;3142;48.206;11.550;2023-12-20T06:45:31;95765.50;;;7.06;80.08
6218;BME280;3142;48.206;11.550;2023-12-20T06:47:58;95767.13;;;7.07;79.22
6218;BME280;3142;48.206;11.550;2023-12-20T06:50:24;95768.28;;;7.04;79.35
6218;BME280;3142;48.206;11.550;2023-12-20T06:52:51;95767.47;;;7.04;79.76
6218;BME280;3142;48.206;11.550;2023-12-20T06:55:18;95763.88;;;7.05;79.24
6218;BME280;3142;48.206;11.550;2023-12-20T06:57:45;95757.88;;;7.04;79.47
6218;BME280;3142;48.206;11.550;2023-12-20T07:00:13;95770.75;;;6.98;78.92
6218;BME280;3142;48.206;11.550;2023-12-20T07:02:39;95781.16;;;6.98;79.15
6218;BME280;3142;48.206;11.550;2023-12-20T07:05:07;95785.56;;;6.97;79.04
6218;BME280;3142;48.206;11.550;2023-12-20T07:07:33;95789.78;;;6.98;78.91
6218;BME280;3142;48.206;11.550;2023-12-20T07:10:00;95801.00;;;6.99;79.59
6218;BME280;3142;48.206;11.550;2023-12-20T07:12:26;95810.94;;;6.95;78.85
6218;BME280;3142;48.206;11.550;2023-12-20T07:14:54;95805.91;;;6.94;78.69
6218;BME280;3142;48.206;11.550;2023-12-20T07:17:21;95812.09;;;6.93;79.23
6218;BME280;3142;48.206;11.550;2023-12-20T07:19:48;95806.72;;;6.94;79.59
6218;BME280;3142;48.206;11.550;2023-12-20T07:22:14;95807.19;;;6.98;78.55
6218;BME280;3142;48.206;11.550;2023-12-20T07:24:41;95806.38;;;6.97;78.56
6218;BME280;3142;48.206;11.550;2023-12-20T07:27:07;95815.16;;;6.96;79.11
6218;BME280;3142;48.206;11.550;2023-12-20T07:29:33;95819.53;;;6.96;78.81
6218;BME280;3142;48.206;11.550;2023-12-20T07:32:01;95822.97;;;6.96;79.15
6218;BME280;3142;48.206;11.550;2023-12-20T07:34:28;95813.91;;;6.92;79.46
6218;BME280;3142;48.206;11.550;2023-12-20T07:36:54;95808.69;;;6.92;78.67
6218;BME280;3142;48.206;11.550;2023-12-20T07:39:20;95818.75;;;6.95;79.44
6218;BME280;3142;48.206;11.550;2023-12-20T07:41:47;95814.59;;;6.86;79.67
6218;BME280;3142;48.206;11.550;2023-12-20T07:44:13;95817.84;;;6.88;79.40
6218;BME280;3142;48.206;11.550;2023-12-20T07:46:40;95823.66;;;6.90;79.72
6218;BME280;3142;48.206;11.550;2023-12-20T07:49:08;95827.53;;;6.94;78.48
6218;BME280;3142;48.206;11.550;2023-12-20T07:51:35;95832.91;;;6.93;78.74
6218;BME280;3142;48.206;11.550;2023-12-20T07:54:01;95834.69;;;6.92;79.17
6218;BME280;3142;48.206;11.550;2023-12-20T07:56:28;95837.47;;;6.91;78.68
6218;BME280;3142;48.206;11.550;2023-12-20T07:58:55;95832.63;;;6.88;79.28
6218;BME280;3142;48.206;11.550;2023-12-20T08:01:21;95834.41;;;6.87;78.30
6218;BME280;3142;48.206;11.550;2023-12-20T08:03:48;95850.19;;;6.86;77.95
6218;BME280;3142;48.206;11.550;2023-12-20T08:06:16;95853.47;;;6.79;78.58
6218;BME280;3142;48.206;11.550;2023-12-20T08:08:42;95853.13;;;6.82;78.82
6218;BME280;3142;48.206;11.550;2023-12-20T08:11:09;95864.16;;;6.84;78.74
6218;BME280;3142;48.206;11.550;2023-12-20T08:13:35;95855.09;;;6.80;79.35
6218;BME280;3142;48.206;11.550;2023-12-20T08:16:02;95858.03;;;6.77;79.41
6218;BME280;3142;48.206;11.550;2023-12-20T08:18:29;95862.44;;;6.77;80.21
6218;BME280;3142;48.206;11.550;2023-12-20T08:20:56;95851.22;;;6.76;80.46
6218;BME280;3142;48.206;11.550;2023-12-20T08:23:22;95855.91;;;6.81;79.40
6218;BME280;3142;48.206;11.550;2023-12-20T08:25:49;95851.84;;;6.78;80.36
6218;BME280;3142;48.206;11.550;2023-12-20T08:28:15;95861.81;;;6.75;80.25
6218;BME280;3142;48.206;11.550;2023-12-20T08:30:42;95871.38;;;6.74;80.19
6218;BME280;3142;48.206;11.550;2023-12-20T08:33:08;95873.34;;;6.72;79.69
6218;BME280;3142;48.206;11.550;2023-12-20T08:35:37;95859.69;;;6.70;80.05
6218;BME280;3142;48.206;11.550;2023-12-20T08:38:04;95858.88;;;6.70;80.13
6218;BME280;3142;48.206;11.550;2023-12-20T08:40:32;95864.91;;;6.70;80.72
6218;BME280;3142;48.206;11.550;2023-12-20T08:42:58;95852.56;;;6.72;80.16
6218;BME280;3142;48.206;11.550;2023-12-20T08:45:24;95854.34;;;6.72;79.68
6218;BME280;3142;48.206;11.550;2023-12-20T08:47:51;95864.56;;;6.73;80.15
6218;BME280;3142;48.206;11.550;2023-12-20T08:50:17;95861.28;;;6.79;80.59
6218;BME280;3142;48.206;11.550;2023-12-20T08:52:44;95856.53;;;6.83;80.13
6218;BME280;3142;48.206;11.550;2023-12-20T08:55:10;95865.81;;;6.86;79.90
6218;BME280;3142;48.206;11.550;2023-12-20T08:57:39;95867.41;;;6.87;79.90
6218;BME280;3142;48.206;11.550;2023-12-20T09:00:07;95860.25;;;6.89;79.59
6218;BME280;3142;48.206;11.550;2023-12-20T09:02:33;95870.47;;;6.90;79.34
6218;BME280;3142;48.206;11.550;2023-12-20T09:05:01;95855.03;;;6.89;79.88
6218;BME280;3142;48.206;11.550;2023-12-20T09:07:28;95860.34;;;6.95;79.57
6218;BME280;3142;48.206;11.550;2023-12-20T09:09:56;95865.56;;;6.95;78.96
6218;BME280;3142;48.206;11.550;2023-12-20T09:12:22;95861.06;;;6.89;79.46
6218;BME280;3142;48.206;11.550;2023-12-20T09:14:51;95869.31;;;6.93;79.73
6218;BME280;3142;48.206;11.550;2023-12-20T09:17:18;95859.53;;;6.95;79.87
6218;BME280;3142;48.206;11.550;2023-12-20T09:19:45;95866.53;;;6.94;80.15
6218;BME280;3142;48.206;11.550;2023-12-20T09:22:12;95861.34;;;6.94;80.43
6218;BME280;3142;48.206;11.550;2023-12-20T09:24:39;95864.56;;;6.96;79.90
6218;BME280;3142;48.206;11.550;2023-12-20T09:27:05;95866.53;;;6.94;79.64
6218;BME280;3142;48.206;11.550;2023-12-20T09:29:32;95861.06;;;6.89;79.92
6218;BME280;3142;48.206;11.550;2023-12-20T09:32:00;95874.50;;;6.93;80.30
6218;BME280;3142;48.206;11.550;2023-12-20T09:34:26;95868.22;;;6.87;80.41
6218;BME280;3142;48.206;11.550;2023-12-20T09:36:53;95864.00;;;6.86;80.42
6218;BME280;3142;48.206;11.550;2023-12-20T09:39:20;95882.34;;;6.84;80.38
6218;BME280;3142;48.206;11.550;2023-12-20T09:41:54;95881.53;;;6.84;80.45
6218;BME280;3142;48.206;11.550;2023-12-20T09:44:22;95875.22;;;6.87;80.33
6218;BME280;3142;48.206;11.550;2023-12-20T09:46:49;95876.34;;;6.84;80.58
6218;BME280;3142;48.206;11.550;2023-12-20T09:49:18;95871.47;;;6.89;80.45
6218;BME280;3142;48.206;11.550;2023-12-20T09:51:46;95866.59;;;6.86;80.09
6218;BME280;3142;48.206;11.550;2023-12-20T09:54:13;95859.44;;;6.88;81.18
6218;BME280;3142;48.206;11.550;2023-12-20T09:56:40;95858.91;;;6.93;80.95
6218;BME280;3142;48.206;11.550;2023-12-20T09:59:06;95858.75;;;6.94;80.39
6218;BME280;3142;48.206;11.550;2023-12-20T10:01:33;95860.00;;;6.98;80.39
6218;BME280;3142;48.206;11.550;2023-12-20T10:04:00;95845.19;;;6.99;81.06
6218;BME280;3142;48.206;11.550;2023-12-20T10:06:30;95845.06;;;7.00;79.75
6218;BME280;3142;48.206;11.550;2023-12-20T10:08:57;95852.16;;;7.06;80.00
6218;BME280;3142;48.206;11.550;2023-12-20T10:11:24;95844.16;;;7.08;80.14
6218;BME280;3142;48.206;11.550;2023-12-20T10:13:51;95843.63;;;7.12;79.53
6218;BME280;3142;48.206;11.550;2023-12-20T10:16:17;95848.50;;;7.16;79.79
6218;BME280;3142;48.206;11.550;2023-12-20T10:18:45;95846.19;;;7.21;80.22
6218;BME280;3142;48.206;11.550;2023-12-20T10:21:12;95832.38;;;7.20;79.67
6218;BME280;3142;48.206;11.550;2023-12-20T10:23:39;95835.59;;;7.22;79.65
6218;BME280;3142;48.206;11.550;2023-12-20T10:26:06;95836.84;;;7.26;79.79
6218;BME280;3142;48.206;11.550;2023-12-20T10:28:34;95837.25;;;7.38;80.00
6218;BME280;3142;48.206;11.550;2023-12-20T10:31:00;95841.94;;;7.42;79.72
6218;BME280;3142;48.206;11.550;2023-12-20T10:33:28;95840.34;;;7.41;79.46
6218;BME280;3142;48.206;11.550;2023-12-20T10:35:55;95842.81;;;7.35;80.18
6218;BME280;3142;48.206;11.550;2023-12-20T10:38:22;95829.81;;;7.35;80.03
6218;BME280;3142;48.206;11.550;2023-12-20T10:40:54;95828.38;;;7.32;81.07
6218;BME280;3142;48.206;11.550;2023-12-20T10:43:23;95830.34;;;7.30;79.86
6218;BME280;3142;48.206;11.550;2023-12-20T10:45:51;95820.75;;;7.31;80.70
6218;BME280;3142;48.206;11.550;2023-12-20T10:48:18;95830.78;;;7.34;80.33
6218;BME280;3142;48.206;11.550;2023-12-20T10:50:47;95817.16;;;7.32;80.48
6218;BME280;3142;48.206;11.550;2023-12-20T10:53:14;95819.94;;;7.30;80.45
6218;BME280;3142;48.206;11.550;2023-12-20T10:55:42;95817.97;;;7.32;80.98
6218;BME280;3142;48.206;11.550;2023-12-20T10:58:13;95827.91;;;7.29;80.27
6218;BME280;3142;48.206;11.550;2023-12-20T11:00:40;95816.53;;;7.30;80.47
6218;BME280;3142;48.206;11.550;2023-12-20T11:03:09;95820.13;;;7.29;80.66
6218;BME280;3142;48.206;11.550;2023-12-20T11:05:39;95823.97;;;7.33;80.36
6218;BME280;3142;48.206;11.550;2023-12-20T11:08:13;95816.34;;;7.31;81.25
6218;BME280;3142;48.206;11.550;2023-12-20T11:10:44;95822.53;;;7.30;80.64
6218;BME280;3142;48.206;11.550;2023-12-20T11:13:20;95812.94;;;7.31;80.94
6218;BME280;3142;48.206;11.550;2023-12-20T11:15:48;95823.16;;;7.32;79.99
6218;BME280;3142;48.206;11.550;2023-12-20T11:18:15;95815.63;;;7.37;80.13
6218;BME280;3142;48.206;11.550;2023-12-20T11:20:42;95814.00;;;7.36;79.77
6218;BME280;3142;48.206;11.550;2023-12-20T11:23:09;95808.44;;;7.39;79.65
6218;BME280;3142;48.206;11.550;2023-12-20T11:25:49;95808.63;;;7.38;79.10
6218;BME280;3142;48.206;11.550;2023-12-20T11:28:23;95799.03;;;7.38;78.72
6218;BME280;3142;48.206;11.550;2023-12-20T11:30:51;95789.59;;;7.37;77.79
6218;BME280;3142;48.206;11.550;2023-12-20T11:33:21;95784.56;;;7.36;78.60
6218;BME280;3142;48.206;11.550;2023-12-20T11:35:48;95786.81;;;7.39;78.08
6218;BME280;3142;48.206;11.550;2023-12-20T11:38:14;95767.91;;;7.45;78.53
6218;BME280;3142;48.206;11.550;2023-12-20T11:40:41;95776.34;;;7.47;77.59
6218;BME280;3142;48.206;11.550;2023-12-20T11:43:08;95766.72;;;7.48;76.91
6218;BME280;3142;48.206;11.550;2023-12-20T11:45:36;95762.34;;;7.48;77.66
6218;BME280;3142;48.206;11.550;2023-12-20T11:48:03;95764.38;;;7.53;76.87
6218;BME280;3142;48.206;11.550;2023-12-20T11:50:30;95766.66;;;7.56;77.83
6218;BME280;3142;48.206;11.550;2023-12-20T11:52:56;95755.34;;;7.63;77.25
6218;BME280;3142;48.206;11.550;2023-12-20T11:55:23;95762.69;;;7.75;76.99
6218;BME280;3142;48.206;11.550;2023-12-20T11:57:51;95752.53;;;7.80;76.62
6218;BME280;3142;48.206;11.550;2023-12-20T12:00:18;95757.03;;;7.86;76.39
6218;BME280;3142;48.206;11.550;2023-12-20T12:02:57;95761.16;;;7.95;75.85
6218;BME280;3142;48.206;11.550;2023-12-20T12:05:23;95756.03;;;8.01;76.24
6218;BME280;3142;48.206;11.550;2023-12-20T12:07:51;95755.38;;;8.14;75.72
6218;BME280;3142;48.206;11.550;2023-12-20T12:10:17;95763.91;;;8.23;76.36
6218;BME280;3142;48.206;11.550;2023-12-20T12:12:43;95758.03;;;8.21;76.00
6218;BME280;3142;48.206;11.550;2023-12-20T12:15:10;95757.69;;;8.24;75.10
6218;BME280;3142;48.206;11.550;2023-12-20T12:17:36;95752.16;;;8.12;74.87
6218;BME280;3142;48.206;11.550;2023-12-20T12:20:06;95754.31;;;8.09;76.29
6218;BME280;3142;48.206;11.550;2023-12-20T12:22:33;95748.66;;;8.05;74.77
6218;BME280;3142;48.206;11.550;2023-12-20T12:25:10;95746.59;;;8.00;74.79
6218;BME280;3142;48.206;11.550;2023-12-20T12:27:37;95741.13;;;7.95;74.79
6218;BME280;3142;48.206;11.550;2023-12-20T12:30:06;95741.22;;;7.87;75.11
6218;BME280;3142;48.206;11.550;2023-12-20T12:32:33;95737.19;;;7.85;74.27
6218;BME280;3142;48.206;11.550;2023-12-20T12:35:00;95740.78;;;7.84;74.56
6218;BME280;3142;48.206;11.550;2023-12-20T12:37:28;95744.84;;;7.71;76.00
6218;BME280;3142;48.206;11.550;2023-12-20T12:39:54;95732.81;;;7.70;75.64
6218;BME280;3142;48.206;11.550;2023-12-20T12:42:21;95740.25;;;7.59;76.15
6218;BME280;3142;48.206;11.550;2023-12-20T12:44:51;95732.16;;;7.54;77.28
6218;BME280;3142;48.206;11.550;2023-12-20T12:47:17;95736.75;;;7.52;76.94
6218;BME280;3142;48.206;11.550;2023-12-20T12:49:44;95741.88;;;7.45;76.75
6218;BME280;3142;48.206;11.550;2023-12-20T12:52:10;95739.28;;;7.45;77.06
6218;BME280;3142;48.206;11.550;2023-12-20T12:54:38;95747.97;;;7.37;76.99
6218;BME280;3142;48.206;11.550;2023-12-20T12:57:04;95746.34;;;7.36;76.24
6218;BME280;3142;48.206;11.550;2023-12-20T12:59:31;95763.13;;;7.34;76.27
6218;BME280;3142;48.206;11.550;2023-12-20T13:01:57;95761.41;;;7.26;76.92
6218;BME280;3142;48.206;11.550;2023-12-20T13:04:24;95775.66;;;7.16;77.99
6218;BME280;3142;48.206;11.550;2023-12-20T13:06:50;95775.72;;;7.07;77.01
6218;BME280;3142;48.206;11.550;2023-12-20T13:09:17;95778.16;;;7.09;78.51
6218;BME280;3142;48.206;11.550;2023-12-20T13:11:45;95769.19;;;7.11;77.63
6218;BME280;3142;48.206;11.550;2023-12-20T13:14:12;95772.84;;;7.02;77.82
6218;BME280;3142;48.206;11.550;2023-12-20T13:16:40;95775.69;;;6.93;78.48
6218;BME280;3142;48.206;11.550;2023-12-20T13:19:07;95767.78;;;6.86;78.20
6218;BME280;3142;48.206;11.550;2023-12-20T13:21:35;95768.69;;;6.93;78.36